Latest Weather Observations for Tarcoola

IDS60801

Issued at 12:01 pm CDT Tuesday 24 October 2017 (issued every 30 minutes, with the page automatically refreshed every 10 minutes)

About weather observations | Map of weather stations | Latest weather observations for SA | Other Formats
Station Details ID: 016098 Name: TARCOOLA AERO Lat: -30.71 Lon: 134.58 Height: 123.0 m
Data from the previous 72 hours. | See also: Recent months at Tarcoola
Date/Time
CDT
Temp
°C
App
Temp
°C
Dew
Point
°C
Rel
Hum
%
Delta-T
°C
Wind Press
QNH
hPa
Press
MSL
hPa
Rain since
9am
mm
Dir  Spd
km/h
Gust
km/h
Spd
kts
Gust
kts
24/12:00pm 32.9 26.2 -1.4 11 16.4 N 24 35 13 19 1010.5 1010.2 0.0
24/11:30am 31.6 23.8 -3.7 10 16.1 N 28 41 15 22 1011.0 1010.7 0.0
24/11:00am 31.6 22.1 -3.7 10 16.1 N 37 48 20 26 1011.7 1011.4 0.0
24/10:30am 30.2 21.0 -4.8 10 15.5 N 35 50 19 27 1012.0 1011.6 0.0
24/10:00am 29.4 20.2 -4.1 11 14.9 N 35 54 19 29 1012.3 1011.9 0.0
24/09:30am 28.6 19.9 -3.6 12 14.4 N 33 56 18 30 1012.2 1011.8 0.0
24/09:28am 27.9 19.1 -4.1 12 14.1 N 33 56 18 30 1012.2 1011.8 0.0
24/09:00am 27.0 19.2 -3.7 13 13.5 N 28 41 15 22 1012.5 1012.1 0.0
24/08:30am 26.0 17.7 -4.5 13 13.1 N 30 46 16 25 1012.3 1011.9 0.0
24/08:00am 24.6 16.3 -4.6 14 12.4 N 30 41 16 22 1011.8 1011.5 0.0
24/07:30am 24.4 17.6 -4.8 14 12.3 N 22 30 12 16 1011.7 1011.4 0.0
24/07:00am 23.9 17.6 -4.3 15 11.9 NNE 20 26 11 14 1011.5 1011.2 0.0
24/06:30am 23.7 17.9 -4.4 15 11.8 NNE 17 22 9 12 1011.3 1011.0 0.0
24/06:00am 24.0 18.2 -5.1 14 12.1 NNE 17 24 9 13 1011.4 1011.1 0.0
24/05:30am 24.1 17.3 -5.0 14 12.2 NE 22 30 12 16 1010.8 1010.5 0.0
24/05:00am 23.9 16.7 -5.2 14 12.1 NE 24 35 13 19 1010.7 1010.4 0.0
24/04:30am 24.1 17.3 -5.0 14 12.2 NNE 22 30 12 16 1011.1 1010.8 0.0
24/04:00am 24.1 16.9 -5.0 14 12.2 NNE 24 32 13 17 1011.2 1010.9 0.0
24/03:30am 24.1 16.9 -5.0 14 12.2 NE 24 30 13 16 1011.6 1011.3 0.0
24/03:00am 24.2 18.0 -4.9 14 12.2 NE 19 26 10 14 1012.1 1011.7 0.0
24/02:30am 24.1 17.7 -5.0 14 12.2 NNE 20 28 11 15 1012.2 1011.8 0.0
24/02:00am 24.3 17.9 -4.9 14 12.3 NE 20 28 11 15 1012.3 1011.9 0.0
24/01:30am 24.0 18.6 -4.2 15 12.0 NE 15 20 8 11 1012.4 1012.0 0.0
24/01:00am 24.4 18.2 -4.8 14 12.3 NNE 19 22 10 12 1012.7 1012.3 0.0
24/12:30am 24.8 19.0 -4.5 14 12.4 NE 17 20 9 11 1013.1 1012.7 0.0
24/12:00am 23.7 19.5 -3.6 16 11.7 NE 9 13 5 7 1013.4 1013.0 0.0
 
Date/Time
CDT
Temp
°C
App
Temp
°C
Dew
Point
°C
Rel
Hum
%
Delta-T
°C
Wind Press
QNH
hPa
Press
MSL
hPa
Rain since
9am
mm
Dir  Spd
km/h
Gust
km/h
Spd
kts
Gust
kts
23/11:30pm 22.9 18.3 -4.2 16 11.4 ENE 11 15 6 8 1013.2 1012.8 0.0
23/11:00pm 24.2 20.6 -4.0 15 12.0 ENE 6 9 3 5 1013.4 1013.0 0.0
23/10:30pm 24.7 20.5 -3.6 15 12.2 ENE 9 13 5 7 1013.1 1012.7 0.0
23/10:00pm 25.3 20.8 -3.2 15 12.5 E 11 13 6 7 1013.1 1012.7 0.0
23/09:30pm 23.7 19.5 -3.6 16 11.7 ENE 9 11 5 6 1012.9 1012.5 0.0
23/09:00pm 25.0 20.5 -3.4 15 12.3 ENE 11 13 6 7 1012.9 1012.5 0.0
23/08:30pm 26.7 22.1 -4.0 13 13.4 NE 11 15 6 8 1013.1 1012.7 0.0
23/08:00pm 28.7 23.8 -3.5 12 14.4 NE 13 17 7 9 1013.1 1012.7 0.0
23/07:30pm 29.7 24.9 -2.7 12 14.8 NNE 13 20 7 11 1013.0 1012.6 0.0
23/07:00pm 30.0 24.8 -2.5 12 14.9 NNE 15 24 8 13 1012.9 1012.5 0.0
23/06:30pm 30.8 26.1 -1.9 12 15.3 NNE 13 20 7 11 1012.9 1012.5 0.0
23/06:00pm 30.4 25.6 -2.2 12 15.1 NNE 13 22 7 12 1013.0 1012.6 0.0
23/05:30pm 30.6 26.3 -2.0 12 15.2 NNW 11 20 6 11 1013.0 1012.6 0.0
23/05:00pm 30.4 26.0 -2.2 12 15.1 NE 11 20 6 11 1013.1 1012.7 0.0
23/04:30pm 31.3 26.6 -1.5 12 15.5 N 13 20 7 11 1013.2 1012.8 0.0
23/04:00pm 31.1 26.4 -1.6 12 15.4 N 13 24 7 13 1013.4 1013.0 0.0
23/03:30pm 30.7 25.2 -1.9 12 15.2 NW 17 26 9 14 1013.9 1013.5 0.0
23/03:00pm 30.4 25.4 -1.1 13 14.9 NNE 15 26 8 14 1014.2 1013.8 0.0
23/02:30pm 30.2 24.8 -1.2 13 14.8 N 17 28 9 15 1014.6 1014.2 0.0
23/02:00pm 29.7 25.0 -1.6 13 14.6 N 13 30 7 16 1015.4 1015.0 0.0
23/01:30pm 29.0 23.6 -1.2 14 14.1 NNE 17 26 9 14 1015.7 1015.3 0.0
23/01:00pm 28.6 23.3 -0.5 15 13.7 N 17 32 9 17 1016.2 1015.8 0.0
23/12:30pm 28.3 22.7 0.1 16 13.4 NNE 19 30 10 16 1016.6 1016.3 0.0
23/12:00pm 26.9 21.5 1.3 19 12.3 NNE 19 30 10 16 1017.1 1016.8 0.0
23/11:30am 26.2 20.5 2.8 22 11.5 NNE 22 32 12 17 1017.4 1017.1 0.0
23/11:00am 24.9 19.6 3.0 24 10.7 NE 20 35 11 19 1018.0 1017.7 0.0
23/10:30am 23.5 18.1 4.5 29 9.4 NE 22 30 12 16 1018.2 1017.9 0.0
23/10:00am 21.6 16.8 4.7 33 8.3 NE 19 28 10 15 1018.5 1018.2 0.0
23/09:30am 20.5 15.3 5.3 37 7.5 ENE 22 28 12 15 1018.6 1018.3 0.0
23/09:00am 18.8 14.1 6.0 43 6.3 ENE 20 26 11 14 1018.7 1018.4 0.0
23/08:30am 17.6 13.1 6.2 47 5.6 ENE 19 28 10 15 1018.4 1018.1 0.0
23/08:00am 16.1 11.5 5.4 49 5.1 ENE 19 26 10 14 1018.2 1017.9 0.0
23/07:30am 15.2 11.6 4.9 50 4.9 E 13 19 7 10 1018.0 1017.7 0.0
23/07:00am 13.7 8.7 3.5 50 4.6 E 19 22 10 12 1017.6 1017.3 0.0
23/06:30am 13.6 8.8 2.8 48 4.8 E 17 24 9 13 1017.4 1017.1 0.0
23/06:00am 13.8 9.3 2.1 45 5.1 E 15 20 8 11 1017.7 1017.4 0.0
23/05:30am 13.6 9.4 1.9 45 5.1 E 13 17 7 9 1017.8 1017.5 0.0
23/05:00am 11.8 7.7 -0.4 43 5.0 ENE 11 13 6 7 1017.7 1017.4 0.0
23/04:30am 10.6 7.5 -2.4 40 5.0 ENE 4 7 2 4 1017.6 1017.3 0.0
23/04:00am 10.5 7.4 -2.5 40 5.0 SE 4 9 2 5 1017.9 1017.6 0.0
23/03:30am 11.0 7.6 -2.4 39 5.2 SSE 6 11 3 6 1018.0 1017.7 0.0
23/03:00am 11.7 9.4 -2.5 37 5.5 CALM 0 0 0 0 1018.3 1018.0 0.0
23/02:30am 12.2 8.2 -2.0 37 5.6 SW 9 11 5 6 1018.6 1018.3 0.0
23/02:00am 12.6 8.2 -2.1 36 5.8 WSW 11 13 6 7 1018.8 1018.5 0.0
23/01:30am 12.9 9.4 -3.0 33 6.2 E 6 7 3 4 1018.8 1018.5 0.0
23/01:00am 14.1 10.5 -2.3 32 6.6 ENE 7 7 4 4 1019.1 1018.8 0.0
23/12:30am 14.8 11.4 -2.1 31 6.8 ENE 6 7 3 4 1019.3 1019.0 0.0
23/12:00am 15.4 12.0 -2.1 30 7.1 ENE 6 7 3 4 1019.4 1019.1 0.0
 
Date/Time
CDT
Temp
°C
App
Temp
°C
Dew
Point
°C
Rel
Hum
%
Delta-T
°C
Wind Press
QNH
hPa
Press
MSL
hPa
Rain since
9am
mm
Dir  Spd
km/h
Gust
km/h
Spd
kts
Gust
kts
22/11:30pm 16.3 12.3 -2.2 28 7.6 E 9 9 5 5 1019.4 1019.1 0.0
22/11:00pm 17.2 13.3 -1.4 28 7.8 E 9 9 5 5 1019.7 1019.4 0.0
22/10:30pm 17.9 13.9 -2.4 25 8.4 E 9 13 5 7 1019.9 1019.6 0.0
22/10:00pm 18.6 14.5 -2.9 23 8.9 ESE 9 13 5 7 1019.9 1019.6 0.0
22/09:30pm 19.4 15.2 -4.1 20 9.5 SE 9 9 5 5 1019.5 1019.2 0.0
22/09:00pm 21.0 16.4 -4.2 18 10.4 ESE 11 13 6 7 1019.3 1019.0 0.0
22/08:30pm 22.5 18.2 -4.5 16 11.2 SE 9 9 5 5 1019.0 1018.7 0.0
22/08:00pm 24.1 19.4 -5.0 14 12.2 SE 11 15 6 8 1018.7 1018.4 0.0
22/07:30pm 24.9 20.4 -3.5 15 12.3 SE 11 17 6 9 1018.5 1018.2 0.0
22/07:00pm 25.7 21.5 -3.8 14 12.8 SSE 9 15 5 8 1018.2 1017.9 0.0
22/06:30pm 26.2 21.2 -4.4 13 13.2 ESE 13 17 7 9 1018.1 1017.8 0.0
22/06:00pm 26.8 22.5 -4.9 12 13.6 ESE 9 20 5 11 1018.1 1017.8 0.0
22/05:30pm 26.7 22.1 -4.0 13 13.4 SSE 11 20 6 11 1018.2 1017.9 0.0
22/05:00pm 26.6 22.4 -4.0 13 13.3 SSE 9 20 5 11 1018.5 1018.2 0.0
22/04:30pm 26.8 22.2 -3.9 13 13.4 ENE 11 17 6 9 1018.8 1018.5 0.0
22/04:00pm 27.1 22.7 -2.7 14 13.3 SSE 11 41 6 22 1019.0 1018.7 0.0
22/03:30pm 26.6 21.9 -2.1 15 12.9 SSE 13 35 7 19 1019.5 1019.2 0.0
22/03:00pm 25.7 21.0 -2.0 16 12.4 SSE 13 22 7 12 1020.1 1019.8 0.0
22/02:30pm 25.0 20.3 -1.7 17 11.9 ESE 13 22 7 12 1020.7 1020.3 0.0
22/02:00pm 24.8 20.0 -2.7 16 12.1 ESE 13 24 7 13 1021.3 1020.9 0.0
22/01:30pm 24.0 19.1 -0.3 20 11.1 SSE 15 20 8 11 1021.8 1021.4 0.0
22/01:00pm 23.1 19.3 1.5 24 10.1 SE 11 20 6 11 1022.3 1021.9 0.0
22/12:30pm 21.7 17.5 1.9 27 9.2 S 13 20 7 11 1022.9 1022.5 0.0
22/12:00pm 20.9 16.9 2.7 30 8.6 SSE 13 24 7 13 1023.5 1023.2 0.0
22/11:30am 19.4 15.8 2.7 33 7.8 SE 11 22 6 12 1024.0 1023.7 0.0
22/11:00am 18.4 15.8 4.2 39 6.8 ESE 7 15 4 8 1024.8 1024.5 0.0
22/10:30am 18.0 14.5 5.6 44 6.0 SE 13 20 7 11 1024.8 1024.5 0.0
22/10:00am 16.6 13.1 5.6 48 5.3 ESE 13 20 7 11 1024.9 1024.6 0.0
22/09:30am 15.9 11.8 6.1 52 4.7 ESE 17 24 9 13 1024.6 1024.3 0.0
22/09:00am 14.8 10.2 6.4 57 4.1 ESE 20 30 11 16 1024.5 1024.2 0.0
22/08:30am 14.4 9.8 6.3 58 3.9 SE 20 26 11 14 1024.1 1023.8 0.0
22/08:00am 13.3 8.7 5.7 60 3.6 SE 19 24 10 13 1023.7 1023.4 0.0
22/07:30am 11.8 9.1 5.7 66 2.8 SSE 9 19 5 10 1023.5 1023.2 0.0
22/07:00am 8.2 5.7 4.0 75 1.8 SSW 6 9 3 5 1023.2 1022.8 0.0
22/06:30am 8.5 5.9 4.3 75 1.8 S 7 9 4 5 1023.0 1022.6 0.0
22/06:00am 8.8 6.0 5.0 77 1.7 SSW 9 13 5 7 1022.8 1022.4 0.0
22/05:30am 8.9 6.0 4.9 76 1.8 SSW 9 11 5 6 1022.8 1022.4 0.0
22/05:00am 9.9 6.8 5.7 75 1.9 SW 11 11 6 6 1022.9 1022.5 0.0
22/04:30am 10.4 8.2 6.0 74 2.0 SW 7 9 4 5 1022.8 1022.4 0.0
22/04:00am 10.6 7.9 5.8 72 2.2 SW 9 11 5 6 1022.8 1022.4 0.0
22/03:30am 11.5 8.5 6.2 70 2.5 SSW 11 13 6 7 1022.9 1022.5 0.0
22/03:00am 12.6 10.1 6.6 67 2.9 SSW 9 11 5 6 1023.0 1022.6 0.0
22/02:30am 13.7 11.3 7.0 64 3.3 SSW 9 13 5 7 1023.3 1022.9 0.0
22/02:00am 14.5 12.1 7.1 61 3.6 SSW 9 11 5 6 1023.6 1023.3 0.0
22/01:30am 15.7 13.0 7.2 57 4.2 SSW 11 15 6 8 1023.8 1023.5 0.0
22/01:00am 16.6 13.2 7.5 55 4.6 S 15 24 8 13 1023.9 1023.6 0.0
22/12:30am 17.2 13.3 7.3 52 5.0 S 17 22 9 12 1024.0 1023.7 0.0
22/12:00am 17.7 13.4 6.9 49 5.4 SSW 19 24 10 13 1023.9 1023.6 0.0
 
Date/Time
CDT
Temp
°C
App
Temp
°C
Dew
Point
°C
Rel
Hum
%
Delta-T
°C
Wind Press
QNH
hPa
Press
MSL
hPa
Rain since
9am
mm
Dir  Spd
km/h
Gust
km/h
Spd
kts
Gust
kts
21/11:30pm 18.4 13.4 6.6 46 5.9 SSW 22 30 12 16 1023.9 1023.6 0.0
21/11:00pm 19.2 13.8 6.3 43 6.5 S 24 37 13 20 1023.9 1023.6 0.0
21/10:30pm 20.0 15.1 5.3 38 7.2 SSW 20 33 11 18 1023.8 1023.5 0.0
21/10:00pm 19.6 14.3 -0.9 25 8.9 SW 17 22 9 12 1023.9 1023.6 0.0
21/09:30pm 19.7 15.7 -2.0 23 9.2 SSE 9 9 5 5 1023.8 1023.5 0.0
21/09:00pm 20.4 16.0 -2.6 21 9.7 S 11 17 6 9 1023.9 1023.6 0.0
21/08:30pm 21.7 18.0 -2.9 19 10.4 SE 7 9 4 5 1023.7 1023.4 0.0
21/08:00pm 23.9 19.4 -3.4 16 11.7 SE 11 15 6 8 1023.5 1023.2 0.0
21/07:30pm 25.2 20.2 -4.2 14 12.5 SSE 13 20 7 11 1023.3 1022.9 0.0
21/07:00pm 26.1 20.8 -3.5 14 13.0 SSE 15 28 8 15 1023.3 1022.9 0.0
21/06:30pm 26.7 21.6 -2.1 15 12.9 S 15 24 8 13 1023.2 1022.8 0.0
21/06:00pm 26.7 21.8 -0.3 17 12.5 SSE 15 22 8 12 1023.2 1022.8 0.0
21/05:30pm 26.7 21.3 -1.2 16 12.7 SSE 17 24 9 13 1023.3 1022.9 0.0
21/05:00pm 27.2 22.4 0.1 17 12.8 SSE 15 24 8 13 1023.6 1023.3 0.0
21/04:30pm 27.3 22.5 0.1 17 12.8 S 15 26 8 14 1023.8 1023.5 0.0
21/04:00pm 26.6 22.1 -0.4 17 12.6 SE 13 26 7 14 1024.2 1023.9 0.0
21/03:30pm 26.6 22.2 0.4 18 12.3 SSE 13 28 7 15 1024.6 1024.3 0.0
21/03:00pm 25.9 21.5 0.5 19 11.9 ESE 13 26 7 14 1025.2 1024.9 0.0
21/02:30pm 25.9 21.1 0.5 19 11.9 S 15 28 8 15 1025.8 1025.5 0.0
21/02:00pm 25.1 20.9 1.9 22 11.1 SSE 13 24 7 13 1026.2 1025.9 0.0
21/01:30pm 23.6 19.8 1.9 24 10.2 SSE 11 20 6 11 1026.7 1026.4 0.0
21/01:00pm 23.5 19.5 2.9 26 10.0 S 13 24 7 13 1027.2 1026.9 0.0
21/12:30pm 22.2 18.7 3.3 29 9.1 ESE 11 20 6 11 1027.6 1027.3 0.0

Other Formats:

Comma delimited format used in spreadsheet applications
http://www.bom.gov.au/fwo/IDS60801/IDS60801.94655.axf

JavaScript Object Notation format (JSON) in row-major order
http://www.bom.gov.au/fwo/IDS60801/IDS60801.94655.json